NCAR-RAP Real-Time Weather Data

Output produced by METARs form (06 May 2021  17:04 UTC)
found at http://weather.rap.ucar.edu/surface/
 
KAVP 061554Z 33012KT 10SM SCT046 13/02 A3002 RMK AO2 SLP164 T01280017
KAVP 061454Z 36014G21KT 10SM FEW041 12/02 A3003 RMK AO2 PK WND 33026/1413 SLP169 T01220017 52010
KAVP 061354Z 35009G15KT 10SM FEW038 11/02 A3002 RMK AO2 SLP166 T01110022
KAVP 061254Z 35011KT 10SM FEW030 10/03 A3001 RMK AO2 SLP163 T01000028
KAVP 061219Z 34014G20KT 10SM FEW025 SCT031 SCT040 09/02 A3000 RMK AO2 T00890022
KAVP 061206Z 36010G18KT 10SM BKN027 OVC033 09/03 A3001 RMK AO2 T00940028
KAVP 061154Z 36007KT 320V030 10SM SCT025 BKN031 BKN038 10/04 A3000 RMK AO2 RAB1055E14 SLP159 P0000 60000 70059 T01000039 10100 20078 53019
KAVP 061111Z 36009G15KT 9SM -RA BKN024 OVC037 08/03 A2999 RMK AO2 RAB1055 P0000 T00830033
KAVP 061054Z 32009KT 10SM SCT027 BKN037 08/04 A2998 RMK AO2 RAB08E23 SLP152 P0000 T00830039
KAVP 060954Z AUTO 32009KT 10SM FEW027 OVC043 08/04 A2996 RMK AO2 SLP146 T00830039
KAVP 060854Z AUTO 32007KT 10SM FEW027 OVC040 08/04 A2995 RMK AO2 RAB13E43 SLP140 P0000 60000 T00830044 53011
KAVP 060845Z AUTO 33010KT 10SM FEW022 SCT029 OVC040 08/04 A2994 RMK AO2 RAB13E43 P0000 T00830044
KAVP 060834Z AUTO 32012G16KT 10SM -RA FEW023 BKN029 OVC037 08/04 A2993 RMK AO2 RAB13 P0000 T00830044
KAVP 060754Z AUTO 32010KT 10SM OVC040 09/04 A2992 RMK AO2 SLP131 T00890039
KAVP 060654Z AUTO 32014G18KT 10SM BKN031 09/04 A2991 RMK AO2 SLP127 T00890039
KAVP 060628Z AUTO 31015G21KT 10SM BKN027 09/04 A2991 RMK AO2 T00890039
KAVP 060554Z AUTO 31015G21KT 10SM FEW060 09/03 A2991 RMK AO2 SLP128 T00940033 10111 20089 58000
KAVP 060454Z AUTO 28007KT 10SM FEW026 OVC060 09/04 A2992 RMK AO2 SLP129 T00940044 401940094
KAVP 060354Z AUTO 32008G16KT 10SM OVC060 10/04 A2991 RMK AO2 SLP126 T01000044
KAVP 060254Z AUTO 28006KT 10SM SCT029 OVC060 11/05 A2991 RMK AO2 SLP127 T01060050 51016
KAVP 060227Z AUTO 30007KT 10SM SCT025 BKN033 OVC060 11/05 A2991 RMK AO2 T01060050
KAVP 060217Z AUTO 27008KT 10SM BKN026 BKN031 OVC055 11/06 A2992 RMK AO2 T01110056
KAVP 060154Z AUTO 29004KT 10SM FEW024 BKN030 OVC044 11/06 A2991 RMK AO2 SLP124 T01110061
KAVP 060145Z AUTO 31005KT 10SM FEW025 BKN032 OVC046 11/06 A2990 RMK AO2 T01110061